createdAt,value
2017-09-01T00:02:04.257Z,57.0
2017-09-01T00:07:03.525Z,57.0
2017-09-01T00:12:03.430Z,57.0
2017-09-01T00:17:03.415Z,57.1
2017-09-01T00:22:03.397Z,57.1
2017-09-01T00:27:04.040Z,57.1
2017-09-01T00:32:03.830Z,57.1
2017-09-01T00:37:03.318Z,57.1
2017-09-01T00:42:03.885Z,57.0
2017-09-01T00:47:03.572Z,57.0
2017-09-01T00:52:03.229Z,56.9
2017-09-01T00:57:03.907Z,56.8
2017-09-01T01:02:03.708Z,56.8
2017-09-01T01:07:03.585Z,56.8
2017-09-01T01:12:03.421Z,56.8
2017-09-01T01:17:03.292Z,56.9
2017-09-01T01:22:03.815Z,56.8
2017-09-01T01:27:03.540Z,57.0
2017-09-01T01:32:03.303Z,56.8
2017-09-01T01:37:03.897Z,56.8
2017-09-01T01:42:03.531Z,57.0
2017-09-01T01:47:03.310Z,56.9
2017-09-01T01:52:03.029Z,56.9
2017-09-01T01:57:03.687Z,56.7
2017-09-01T02:02:03.443Z,56.9
2017-09-01T02:07:03.419Z,56.7
2017-09-01T02:12:03.244Z,56.6
2017-09-01T02:17:03.957Z,56.8
2017-09-01T02:22:03.640Z,56.8
2017-09-01T02:27:03.346Z,56.8
2017-09-01T02:32:04.017Z,56.8
2017-09-01T02:37:03.374Z,56.8
2017-09-01T02:42:03.626Z,56.7
2017-09-01T02:47:03.968Z,56.7
2017-09-01T02:52:03.404Z,56.8
2017-09-01T02:57:03.646Z,56.8
2017-09-01T03:02:03.090Z,56.8
2017-09-01T03:07:03.500Z,56.7
2017-09-01T03:12:03.904Z,56.8
2017-09-01T03:17:03.477Z,56.9
2017-09-01T03:22:03.713Z,56.9
2017-09-01T03:27:03.991Z,56.8
2017-09-01T03:32:03.368Z,56.8
2017-09-01T03:37:03.689Z,56.8
2017-09-01T03:42:03.932Z,56.9
2017-09-01T03:47:03.292Z,56.9
2017-09-01T03:52:03.537Z,56.8
2017-09-01T03:57:03.868Z,56.8
2017-09-01T04:02:03.334Z,56.8
2017-09-01T04:07:03.666Z,56.8
2017-09-01T04:12:03.101Z,56.8
2017-09-01T04:17:05.403Z,56.7
2017-09-01T04:22:03.905Z,56.8
2017-09-01T04:27:03.384Z,56.7
2017-09-01T04:32:24.312Z,56.6
2017-09-01T04:37:03.277Z,56.5
2017-09-01T04:42:03.786Z,56.6
2017-09-01T04:47:23.371Z,56.6
2017-09-01T04:52:03.706Z,56.7
2017-09-01T04:57:03.087Z,56.6
2017-09-01T05:02:24.323Z,56.5
2017-09-01T05:07:03.755Z,56.7
2017-09-01T05:12:03.576Z,56.6
2017-09-01T05:17:23.910Z,56.6
2017-09-01T05:22:03.775Z,56.5
2017-09-01T05:27:03.643Z,56.5
2017-09-01T05:32:33.029Z,56.6
2017-09-01T05:37:03.456Z,56.5
2017-09-01T05:42:03.832Z,56.4
2017-09-01T05:47:28.123Z,56.5
2017-09-01T05:52:03.109Z,56.4
2017-09-01T05:57:03.634Z,56.3
2017-09-01T06:02:25.992Z,56.3
2017-09-01T06:07:03.533Z,56.2
2017-09-01T06:12:03.131Z,56.1
2017-09-01T06:17:28.689Z,56.1
2017-09-01T06:22:03.816Z,56.2
2017-09-01T06:27:03.174Z,55.9
2017-09-01T06:32:28.147Z,55.8
2017-09-01T06:37:03.790Z,55.9
2017-09-01T06:42:03.285Z,55.9
2017-09-01T06:47:24.156Z,55.8
2017-09-01T06:52:03.022Z,55.8
2017-09-01T06:57:03.565Z,55.7
2017-09-01T07:02:27.664Z,55.4
2017-09-01T07:07:03.143Z,55.9
2017-09-01T07:12:03.644Z,55.8
2017-09-01T07:17:26.632Z,55.8
2017-09-01T07:22:03.486Z,55.8
2017-09-01T07:27:03.899Z,55.5
2017-09-01T07:32:28.310Z,55.9
2017-09-01T07:37:03.074Z,55.8
2017-09-01T07:42:03.568Z,55.5
2017-09-01T07:47:28.908Z,55.5
2017-09-01T07:52:03.481Z,55.6
2017-09-01T07:57:03.448Z,55.6
2017-09-01T08:02:20.722Z,55.7
2017-09-01T08:07:03.589Z,55.6
2017-09-01T08:12:03.297Z,55.4
2017-09-01T08:17:24.137Z,55.6
2017-09-01T08:22:03.813Z,55.5
2017-09-01T08:27:03.264Z,55.4
2017-09-01T08:32:28.232Z,55.4
2017-09-01T08:37:03.821Z,55.4
2017-09-01T08:42:03.262Z,55.4
2017-09-01T08:47:28.333Z,55.3
2017-09-01T08:52:03.742Z,55.3
2017-09-01T08:57:03.189Z,55.4
2017-09-01T09:02:23.823Z,55.4
2017-09-01T09:07:03.358Z,55.4
2017-09-01T09:12:03.786Z,55.7
2017-09-01T09:17:28.421Z,55.7
2017-09-01T09:22:03.787Z,55.8
2017-09-01T09:27:03.300Z,55.8
2017-09-01T09:32:28.075Z,55.4
2017-09-01T09:37:03.750Z,55.4
2017-09-01T09:42:03.190Z,55.4
2017-09-01T09:47:25.457Z,55.5
2017-09-01T09:52:03.390Z,54.5
2017-09-01T09:57:03.831Z,54.5
2017-09-01T10:02:27.828Z,54.1
2017-09-01T10:07:03.698Z,54.0
2017-09-01T10:12:03.452Z,54.3
2017-09-01T10:17:28.618Z,54.3
2017-09-01T10:22:03.835Z,54.2
2017-09-01T10:27:03.324Z,54.6
2017-09-01T10:32:23.916Z,54.6
2017-09-01T10:37:03.961Z,54.5
2017-09-01T10:42:03.300Z,54.6
2017-09-01T10:47:24.377Z,54.7
2017-09-01T10:52:03.057Z,54.9
2017-09-01T10:57:03.677Z,54.8
2017-09-01T11:02:27.606Z,54.8
2017-09-01T11:07:03.713Z,54.9
2017-09-01T11:12:03.388Z,54.7
2017-09-01T11:17:28.880Z,54.8
2017-09-01T11:22:03.839Z,54.5
2017-09-01T11:27:03.243Z,54.6
2017-09-01T11:32:23.979Z,54.6
2017-09-01T11:37:03.321Z,54.2
2017-09-01T11:42:03.757Z,53.9
2017-09-01T11:47:28.340Z,53.9
2017-09-01T11:52:03.364Z,53.4
2017-09-01T11:57:03.804Z,53.4
2017-09-01T12:02:27.546Z,52.7
2017-09-01T12:07:03.720Z,52.7
2017-09-01T12:12:03.364Z,52.8
2017-09-01T12:17:28.651Z,53.2
2017-09-01T12:22:03.624Z,53.2
2017-09-01T12:27:03.148Z,53.2
2017-09-01T12:32:27.750Z,52.8
2017-09-01T12:37:03.794Z,53.1
2017-09-01T12:42:03.281Z,53.0
2017-09-01T12:47:24.963Z,52.9
2017-09-01T12:52:03.666Z,53.7
2017-09-01T12:57:03.192Z,53.7
2017-09-01T13:02:28.060Z,53.3
2017-09-01T13:07:03.943Z,53.2
2017-09-01T13:12:03.614Z,53.0
2017-09-01T13:17:24.299Z,53.0
2017-09-01T13:22:03.728Z,53.3
2017-09-01T13:27:03.402Z,53.5
2017-09-01T13:32:25.716Z,53.3
2017-09-01T13:37:03.437Z,53.6
2017-09-01T13:42:03.815Z,53.7
2017-09-01T13:47:18.332Z,54.2
2017-09-01T13:52:03.067Z,54.2
2017-09-01T13:57:03.558Z,54.3
2017-09-01T14:02:20.284Z,53.4
2017-09-01T14:07:03.641Z,52.8
2017-09-01T14:12:03.322Z,52.2
2017-09-01T14:17:28.241Z,52.0
2017-09-01T14:22:03.316Z,51.9
2017-09-01T14:27:03.224Z,51.9
2017-09-01T14:32:23.837Z,48.5
2017-09-01T14:37:03.165Z,48.5
2017-09-01T14:42:03.677Z,48.0
2017-09-01T14:47:23.753Z,51.0
2017-09-01T14:52:03.762Z,52.3
2017-09-01T14:57:03.499Z,52.3
2017-09-01T15:02:27.583Z,48.5
2017-09-01T15:07:03.877Z,49.1
2017-09-01T15:12:03.517Z,49.1
2017-09-01T15:17:20.416Z,52.9
2017-09-01T15:22:03.814Z,52.7
2017-09-01T15:27:03.362Z,52.7
2017-09-01T15:32:30.015Z,52.1
2017-09-01T15:37:03.236Z,51.5
2017-09-01T15:42:03.676Z,45.6
2017-09-01T15:47:28.745Z,40.2
2017-09-01T15:52:03.446Z,40.2
2017-09-01T15:57:03.801Z,44.6
2017-09-01T16:02:32.170Z,48.6
2017-09-01T16:07:03.798Z,48.6
2017-09-01T16:12:03.278Z,49.7
2017-09-01T16:17:29.392Z,51.0
2017-09-01T16:22:03.947Z,51.0
2017-09-01T16:27:03.438Z,52.5
2017-09-01T16:32:26.128Z,53.6
2017-09-01T16:37:03.754Z,53.9
2017-09-01T16:42:03.121Z,54.1
2017-09-01T16:47:21.659Z,47.8
2017-09-01T16:52:03.479Z,47.8
2017-09-01T16:57:03.741Z,41.8
2017-09-01T17:02:23.185Z,41.6
2017-09-01T17:07:03.731Z,41.6
2017-09-01T17:12:03.291Z,47.4
2017-09-01T17:17:28.773Z,51.0
2017-09-01T17:22:03.835Z,53.0
2017-09-01T17:27:03.280Z,53.0
2017-09-01T17:32:21.929Z,53.6
2017-09-01T17:37:03.513Z,53.6
2017-09-01T17:42:03.811Z,52.4
2017-09-01T17:47:21.813Z,53.8
2017-09-01T17:52:03.688Z,54.8
2017-09-01T17:57:03.156Z,54.8
2017-09-01T18:02:21.626Z,55.9
2017-09-01T18:07:03.641Z,55.8
2017-09-01T18:12:03.697Z,56.2
2017-09-01T18:17:27.649Z,56.3
2017-09-01T18:22:03.365Z,56.3
2017-09-01T18:27:03.753Z,56.3
2017-09-01T18:32:20.448Z,56.1
2017-09-01T18:37:03.579Z,56.0
2017-09-01T18:42:03.937Z,56.0
2017-09-01T18:47:08.073Z,56.0
2017-09-01T18:52:03.761Z,55.9
2017-09-01T18:57:03.206Z,55.8
2017-09-01T19:02:03.607Z,55.7
2017-09-01T19:07:03.227Z,55.7
2017-09-01T19:12:03.582Z,55.6
2017-09-01T19:17:03.942Z,55.8
2017-09-01T19:22:03.330Z,55.7
2017-09-01T19:27:03.515Z,55.8
2017-09-01T19:32:03.881Z,55.7
2017-09-01T19:37:03.315Z,55.7
2017-09-01T19:42:03.475Z,55.8
2017-09-01T19:47:04.010Z,55.6
2017-09-01T19:52:03.512Z,55.6
2017-09-01T19:57:03.550Z,55.6
2017-09-01T20:02:04.488Z,55.7
2017-09-01T20:07:03.334Z,55.7
2017-09-01T20:12:03.766Z,55.5
2017-09-01T20:17:04.093Z,55.4
2017-09-01T20:22:04.849Z,55.2
2017-09-01T20:27:03.661Z,55.1
2017-09-01T20:32:04.036Z,55.1
2017-09-01T20:37:03.450Z,55.2
2017-09-01T20:42:03.638Z,55.1
2017-09-01T20:47:03.988Z,54.8
2017-09-01T20:52:03.298Z,54.8
2017-09-01T20:57:03.602Z,54.9
2017-09-01T21:02:03.930Z,55.0
2017-09-01T21:07:03.343Z,55.0
2017-09-01T21:12:03.820Z,55.0
2017-09-01T21:17:03.343Z,55.0
2017-09-01T21:22:03.540Z,55.0
2017-09-01T21:27:03.785Z,55.0
2017-09-01T21:32:03.279Z,54.8
2017-09-01T21:37:03.512Z,55.1
2017-09-01T21:42:03.747Z,55.1
2017-09-01T21:47:03.233Z,55.0
2017-09-01T21:52:03.530Z,54.9
2017-09-01T21:57:03.776Z,54.9
2017-09-01T22:02:03.684Z,54.9
2017-09-01T22:07:03.655Z,54.9
2017-09-01T22:12:03.747Z,54.9
2017-09-01T22:22:04.118Z,54.6
2017-09-01T22:27:03.217Z,54.9
2017-09-01T22:32:03.747Z,55.0
2017-09-01T22:37:03.736Z,55.0
2017-09-01T22:42:03.288Z,55.0
2017-09-01T22:47:06.595Z,55.2
2017-09-01T22:52:03.555Z,55.1
2017-09-01T22:57:03.291Z,55.0
2017-09-01T23:02:03.889Z,55.0
2017-09-01T23:07:03.589Z,55.0
2017-09-01T23:12:03.393Z,55.0
2017-09-01T23:17:03.117Z,55.0
2017-09-01T23:22:03.456Z,55.0
2017-09-01T23:27:03.072Z,55.0
2017-09-01T23:32:03.967Z,55.0
2017-09-01T23:37:03.569Z,55.0
2017-09-01T23:42:03.368Z,54.9
2017-09-01T23:47:03.345Z,54.9
2017-09-01T23:52:03.325Z,54.9
2017-09-01T23:57:03.156Z,54.7
